sensor_id;sensor_type;location;lat;lon;timestamp;temperature;humidity
52073;DHT22;38074;51.232;6.826;2023-04-15T00:03:00;23.70;41.20
52073;DHT22;38074;51.232;6.826;2023-04-15T00:10:16;23.70;41.20
52073;DHT22;38074;51.232;6.826;2023-04-15T00:17:32;23.70;41.20
52073;DHT22;38074;51.232;6.826;2023-04-15T00:24:47;23.70;41.10
52073;DHT22;38074;51.232;6.826;2023-04-15T00:32:03;23.70;41.10
52073;DHT22;38074;51.232;6.826;2023-04-15T00:39:18;23.70;41.10
52073;DHT22;38074;51.232;6.826;2023-04-15T00:46:38;23.70;41.10
52073;DHT22;38074;51.232;6.826;2023-04-15T00:53:54;23.70;41.00
52073;DHT22;38074;51.232;6.826;2023-04-15T01:01:09;23.70;41.00
52073;DHT22;38074;51.232;6.826;2023-04-15T01:08:28;23.70;41.00
52073;DHT22;38074;51.232;6.826;2023-04-15T01:15:45;23.70;40.90
52073;DHT22;38074;51.232;6.826;2023-04-15T01:23:01;23.70;40.80
52073;DHT22;38074;51.232;6.826;2023-04-15T01:30:16;23.70;40.80
52073;DHT22;38074;51.232;6.826;2023-04-15T01:37:32;23.70;40.80
52073;DHT22;38074;51.232;6.826;2023-04-15T01:44:48;23.70;40.70
52073;DHT22;38074;51.232;6.826;2023-04-15T01:52:03;23.70;40.70
52073;DHT22;38074;51.232;6.826;2023-04-15T01:59:19;23.70;40.70
52073;DHT22;38074;51.232;6.826;2023-04-15T02:06:35;23.70;40.60
52073;DHT22;38074;51.232;6.826;2023-04-15T02:13:50;23.70;40.60
52073;DHT22;38074;51.232;6.826;2023-04-15T02:21:06;23.70;40.60
52073;DHT22;38074;51.232;6.826;2023-04-15T02:28:22;23.70;40.50
52073;DHT22;38074;51.232;6.826;2023-04-15T02:35:38;23.70;40.50
52073;DHT22;38074;51.232;6.826;2023-04-15T02:42:56;23.60;41.20
52073;DHT22;38074;51.232;6.826;2023-04-15T02:50:12;23.60;40.50
52073;DHT22;38074;51.232;6.826;2023-04-15T02:57:27;23.60;40.50
52073;DHT22;38074;51.232;6.826;2023-04-15T03:04:43;23.60;40.50
52073;DHT22;38074;51.232;6.826;2023-04-15T03:11:59;23.60;40.50
52073;DHT22;38074;51.232;6.826;2023-04-15T03:19:14;23.60;40.40
52073;DHT22;38074;51.232;6.826;2023-04-15T03:26:31;23.60;40.40
52073;DHT22;38074;51.232;6.826;2023-04-15T03:33:46;23.60;40.40
52073;DHT22;38074;51.232;6.826;2023-04-15T03:41:02;23.70;40.50
52073;DHT22;38074;51.232;6.826;2023-04-15T03:48:17;23.60;40.40
52073;DHT22;38074;51.232;6.826;2023-04-15T03:55:33;23.70;40.40
52073;DHT22;38074;51.232;6.826;2023-04-15T04:02:48;23.70;40.50
52073;DHT22;38074;51.232;6.826;2023-04-15T04:10:05;23.70;40.40
52073;DHT22;38074;51.232;6.826;2023-04-15T04:17:21;23.70;40.50
52073;DHT22;38074;51.232;6.826;2023-04-15T04:24:36;23.70;40.40
52073;DHT22;38074;51.232;6.826;2023-04-15T04:31:52;23.70;40.40
52073;DHT22;38074;51.232;6.826;2023-04-15T04:39:08;23.60;40.40
52073;DHT22;38074;51.232;6.826;2023-04-15T04:46:23;23.60;40.50
52073;DHT22;38074;51.232;6.826;2023-04-15T04:53:39;23.60;40.40
52073;DHT22;38074;51.232;6.826;2023-04-15T05:00:54;23.60;40.40
52073;DHT22;38074;51.232;6.826;2023-04-15T05:08:10;23.60;40.40
52073;DHT22;38074;51.232;6.826;2023-04-15T05:15:26;23.60;40.40
52073;DHT22;38074;51.232;6.826;2023-04-15T05:22:41;23.60;40.50
52073;DHT22;38074;51.232;6.826;2023-04-15T05:29:57;23.60;40.40
52073;DHT22;38074;51.232;6.826;2023-04-15T05:37:13;23.50;40.20
52073;DHT22;38074;51.232;6.826;2023-04-15T05:44:28;23.60;40.20
52073;DHT22;38074;51.232;6.826;2023-04-15T05:51:43;23.60;40.00
52073;DHT22;38074;51.232;6.826;2023-04-15T05:59:00;23.60;39.90
52073;DHT22;38074;51.232;6.826;2023-04-15T06:06:16;23.50;39.80
52073;DHT22;38074;51.232;6.826;2023-04-15T06:13:31;23.50;39.80
52073;DHT22;38074;51.232;6.826;2023-04-15T06:20:47;23.50;39.70
52073;DHT22;38074;51.232;6.826;2023-04-15T06:28:02;23.60;40.00
52073;DHT22;38074;51.232;6.826;2023-04-15T06:35:18;23.70;40.00
52073;DHT22;38074;51.232;6.826;2023-04-15T06:42:34;23.70;40.00
52073;DHT22;38074;51.232;6.826;2023-04-15T06:49:50;23.70;40.00
52073;DHT22;38074;51.232;6.826;2023-04-15T06:57:06;23.70;40.10
52073;DHT22;38074;51.232;6.826;2023-04-15T07:04:22;23.70;40.00
52073;DHT22;38074;51.232;6.826;2023-04-15T07:11:37;23.80;40.10
52073;DHT22;38074;51.232;6.826;2023-04-15T07:18:53;23.80;39.80
52073;DHT22;38074;51.232;6.826;2023-04-15T07:26:10;23.70;39.60
52073;DHT22;38074;51.232;6.826;2023-04-15T07:33:25;23.70;39.70
52073;DHT22;38074;51.232;6.826;2023-04-15T07:40:41;23.80;39.80
52073;DHT22;38074;51.232;6.826;2023-04-15T07:47:56;23.90;39.70
52073;DHT22;38074;51.232;6.826;2023-04-15T07:55:12;23.90;39.70
52073;DHT22;38074;51.232;6.826;2023-04-15T08:02:27;24.00;39.80
52073;DHT22;38074;51.232;6.826;2023-04-15T08:09:43;24.10;39.90
52073;DHT22;38074;51.232;6.826;2023-04-15T08:16:59;24.00;38.50
52073;DHT22;38074;51.232;6.826;2023-04-15T08:24:14;22.70;37.50
52073;DHT22;38074;51.232;6.826;2023-04-15T08:31:30;22.20;37.30
52073;DHT22;38074;51.232;6.826;2023-04-15T08:38:45;22.20;38.40
52073;DHT22;38074;51.232;6.826;2023-04-15T08:46:01;22.10;37.30
52073;DHT22;38074;51.232;6.826;2023-04-15T08:53:18;21.30;37.10
52073;DHT22;38074;51.232;6.826;2023-04-15T09:00:35;21.10;37.50
52073;DHT22;38074;51.232;6.826;2023-04-15T09:07:50;21.40;38.40
52073;DHT22;38074;51.232;6.826;2023-04-15T09:15:07;21.40;37.60
52073;DHT22;38074;51.232;6.826;2023-04-15T09:22:31;22.00;38.30
52073;DHT22;38074;51.232;6.826;2023-04-15T09:29:49;22.50;38.10
52073;DHT22;38074;51.232;6.826;2023-04-15T09:37:05;22.70;37.90
52073;DHT22;38074;51.232;6.826;2023-04-15T09:44:24;22.80;37.80
52073;DHT22;38074;51.232;6.826;2023-04-15T09:51:40;22.90;37.60
52073;DHT22;38074;51.232;6.826;2023-04-15T09:58:56;23.00;37.60
52073;DHT22;38074;51.232;6.826;2023-04-15T10:06:11;23.00;37.60
52073;DHT22;38074;51.232;6.826;2023-04-15T10:13:29;23.10;37.60
52073;DHT22;38074;51.232;6.826;2023-04-15T10:20:48;23.10;37.40
52073;DHT22;38074;51.232;6.826;2023-04-15T10:28:05;23.10;37.40
52073;DHT22;38074;51.232;6.826;2023-04-15T10:35:22;23.20;37.40
52073;DHT22;38074;51.232;6.826;2023-04-15T10:42:37;23.20;37.40
52073;DHT22;38074;51.232;6.826;2023-04-15T10:50:00;23.20;37.40
52073;DHT22;38074;51.232;6.826;2023-04-15T10:57:22;23.30;37.40
52073;DHT22;38074;51.232;6.826;2023-04-15T11:04:57;23.20;37.40
52073;DHT22;38074;51.232;6.826;2023-04-15T11:12:12;23.30;37.40
52073;DHT22;38074;51.232;6.826;2023-04-15T11:19:35;23.30;37.50
52073;DHT22;38074;51.232;6.826;2023-04-15T11:26:56;23.30;37.50
52073;DHT22;38074;51.232;6.826;2023-04-15T11:34:11;23.30;37.50
52073;DHT22;38074;51.232;6.826;2023-04-15T11:41:36;23.30;37.50
52073;DHT22;38074;51.232;6.826;2023-04-15T11:48:52;23.30;37.50
52073;DHT22;38074;51.232;6.826;2023-04-15T11:56:19;23.30;37.50
52073;DHT22;38074;51.232;6.826;2023-04-15T12:03:41;23.30;37.50
52073;DHT22;38074;51.232;6.826;2023-04-15T12:10:58;23.30;37.60
52073;DHT22;38074;51.232;6.826;2023-04-15T12:18:17;23.30;37.60
52073;DHT22;38074;51.232;6.826;2023-04-15T12:25:34;23.30;37.60
52073;DHT22;38074;51.232;6.826;2023-04-15T12:32:51;23.30;37.70
52073;DHT22;38074;51.232;6.826;2023-04-15T12:40:07;23.30;37.70
52073;DHT22;38074;51.232;6.826;2023-04-15T12:47:23;23.30;37.70
52073;DHT22;38074;51.232;6.826;2023-04-15T12:54:38;23.30;37.70
52073;DHT22;38074;51.232;6.826;2023-04-15T13:01:54;23.30;37.70
52073;DHT22;38074;51.232;6.826;2023-04-15T13:09:10;23.30;37.80
52073;DHT22;38074;51.232;6.826;2023-04-15T13:16:25;23.30;37.80
52073;DHT22;38074;51.232;6.826;2023-04-15T13:23:41;23.30;37.80
52073;DHT22;38074;51.232;6.826;2023-04-15T13:30:56;23.30;37.80
52073;DHT22;38074;51.232;6.826;2023-04-15T13:38:12;23.30;37.80
52073;DHT22;38074;51.232;6.826;2023-04-15T13:45:27;23.30;37.90
52073;DHT22;38074;51.232;6.826;2023-04-15T13:52:43;23.30;37.80
52073;DHT22;38074;51.232;6.826;2023-04-15T13:59:59;23.30;37.80
52073;DHT22;38074;51.232;6.826;2023-04-15T14:07:14;23.30;37.80
52073;DHT22;38074;51.232;6.826;2023-04-15T14:14:30;23.30;37.90
52073;DHT22;38074;51.232;6.826;2023-04-15T14:21:46;23.30;37.90
52073;DHT22;38074;51.232;6.826;2023-04-15T14:29:01;23.30;37.90
52073;DHT22;38074;51.232;6.826;2023-04-15T14:36:17;23.30;37.90
52073;DHT22;38074;51.232;6.826;2023-04-15T14:43:33;23.00;36.70
52073;DHT22;38074;51.232;6.826;2023-04-15T14:50:49;22.60;37.90
52073;DHT22;38074;51.232;6.826;2023-04-15T14:58:05;22.60;37.00
52073;DHT22;38074;51.232;6.826;2023-04-15T15:05:22;22.20;37.40
52073;DHT22;38074;51.232;6.826;2023-04-15T15:12:39;22.10;37.80
52073;DHT22;38074;51.232;6.826;2023-04-15T15:20:07;22.00;38.60
52073;DHT22;38074;51.232;6.826;2023-04-15T15:27:35;22.50;39.00
52073;DHT22;38074;51.232;6.826;2023-04-15T15:34:51;22.80;39.00
52073;DHT22;38074;51.232;6.826;2023-04-15T15:42:07;23.10;40.00
52073;DHT22;38074;51.232;6.826;2023-04-15T15:49:23;23.20;40.90
52073;DHT22;38074;51.232;6.826;2023-04-15T15:56:43;23.30;41.80
52073;DHT22;38074;51.232;6.826;2023-04-15T16:03:59;23.40;42.20
52073;DHT22;38074;51.232;6.826;2023-04-15T16:11:15;23.50;42.70
52073;DHT22;38074;51.232;6.826;2023-04-15T16:18:30;23.50;42.90
52073;DHT22;38074;51.232;6.826;2023-04-15T16:25:46;23.30;42.80
52073;DHT22;38074;51.232;6.826;2023-04-15T16:33:03;23.20;42.70
52073;DHT22;38074;51.232;6.826;2023-04-15T16:40:18;23.20;42.60
52073;DHT22;38074;51.232;6.826;2023-04-15T16:47:34;23.10;42.70
52073;DHT22;38074;51.232;6.826;2023-04-15T16:54:49;23.10;42.80
52073;DHT22;38074;51.232;6.826;2023-04-15T17:02:08;23.20;42.90
52073;DHT22;38074;51.232;6.826;2023-04-15T17:09:24;23.20;43.10
52073;DHT22;38074;51.232;6.826;2023-04-15T17:16:40;23.30;43.20
52073;DHT22;38074;51.232;6.826;2023-04-15T17:24:00;23.30;43.30
52073;DHT22;38074;51.232;6.826;2023-04-15T17:31:16;23.30;43.10
52073;DHT22;38074;51.232;6.826;2023-04-15T17:38:34;23.20;43.20
52073;DHT22;38074;51.232;6.826;2023-04-15T17:45:50;23.20;43.10
52073;DHT22;38074;51.232;6.826;2023-04-15T17:53:05;23.20;43.20
52073;DHT22;38074;51.232;6.826;2023-04-15T18:00:21;23.20;42.90
52073;DHT22;38074;51.232;6.826;2023-04-15T18:07:40;23.10;43.10
52073;DHT22;38074;51.232;6.826;2023-04-15T18:14:55;23.20;43.20
52073;DHT22;38074;51.232;6.826;2023-04-15T18:22:11;23.30;43.20
52073;DHT22;38074;51.232;6.826;2023-04-15T18:29:27;23.30;43.20
52073;DHT22;38074;51.232;6.826;2023-04-15T18:36:42;23.40;43.30
52073;DHT22;38074;51.232;6.826;2023-04-15T18:43:58;23.40;43.40
52073;DHT22;38074;51.232;6.826;2023-04-15T18:51:16;23.50;43.50
52073;DHT22;38074;51.232;6.826;2023-04-15T18:58:32;23.50;43.80
52073;DHT22;38074;51.232;6.826;2023-04-15T19:05:48;23.60;43.90
52073;DHT22;38074;51.232;6.826;2023-04-15T19:13:03;23.60;44.10
52073;DHT22;38074;51.232;6.826;2023-04-15T19:20:19;23.60;44.30
52073;DHT22;38074;51.232;6.826;2023-04-15T19:27:35;23.60;44.60
52073;DHT22;38074;51.232;6.826;2023-04-15T19:34:52;23.60;44.90
52073;DHT22;38074;51.232;6.826;2023-04-15T19:42:07;23.70;45.20
52073;DHT22;38074;51.232;6.826;2023-04-15T19:49:24;23.70;45.40
52073;DHT22;38074;51.232;6.826;2023-04-15T19:56:40;23.70;46.20
52073;DHT22;38074;51.232;6.826;2023-04-15T20:03:56;23.70;45.70
52073;DHT22;38074;51.232;6.826;2023-04-15T20:11:12;23.70;45.80
52073;DHT22;38074;51.232;6.826;2023-04-15T20:18:27;23.70;46.00
52073;DHT22;38074;51.232;6.826;2023-04-15T20:25:43;23.70;46.20
52073;DHT22;38074;51.232;6.826;2023-04-15T20:33:01;23.70;46.30
52073;DHT22;38074;51.232;6.826;2023-04-15T20:40:16;23.60;46.40
52073;DHT22;38074;51.232;6.826;2023-04-15T20:47:32;23.60;46.40
52073;DHT22;38074;51.232;6.826;2023-04-15T20:54:47;23.60;47.10
52073;DHT22;38074;51.232;6.826;2023-04-15T21:02:03;23.50;46.50
52073;DHT22;38074;51.232;6.826;2023-04-15T21:09:19;23.60;46.60
52073;DHT22;38074;51.232;6.826;2023-04-15T21:16:34;23.60;46.70
52073;DHT22;38074;51.232;6.826;2023-04-15T21:23:50;23.60;46.70
52073;DHT22;38074;51.232;6.826;2023-04-15T21:31:05;23.60;46.70
52073;DHT22;38074;51.232;6.826;2023-04-15T21:38:21;23.60;46.70
52073;DHT22;38074;51.232;6.826;2023-04-15T21:45:36;23.60;46.70
52073;DHT22;38074;51.232;6.826;2023-04-15T21:52:53;23.60;46.60
52073;DHT22;38074;51.232;6.826;2023-04-15T22:00:09;23.60;46.50
52073;DHT22;38074;51.232;6.826;2023-04-15T22:07:25;23.60;46.50
52073;DHT22;38074;51.232;6.826;2023-04-15T22:14:41;23.60;46.50
52073;DHT22;38074;51.232;6.826;2023-04-15T22:21:56;23.60;46.50
52073;DHT22;38074;51.232;6.826;2023-04-15T22:29:13;23.60;46.40
52073;DHT22;38074;51.232;6.826;2023-04-15T22:36:29;23.60;46.30
52073;DHT22;38074;51.232;6.826;2023-04-15T22:43:45;23.60;46.20
52073;DHT22;38074;51.232;6.826;2023-04-15T22:58:17;23.60;46.10
52073;DHT22;38074;51.232;6.826;2023-04-15T23:05:32;23.60;46.00
52073;DHT22;38074;51.232;6.826;2023-04-15T23:12:48;23.60;46.00
52073;DHT22;38074;51.232;6.826;2023-04-15T23:20:04;23.50;45.90
52073;DHT22;38074;51.232;6.826;2023-04-15T23:27:19;23.50;45.80
52073;DHT22;38074;51.232;6.826;2023-04-15T23:34:36;23.50;45.80
52073;DHT22;38074;51.232;6.826;2023-04-15T23:41:52;23.50;45.80
52073;DHT22;38074;51.232;6.826;2023-04-15T23:49:07;23.50;45.70
52073;DHT22;38074;51.232;6.826;2023-04-15T23:56:23;23.50;45.70
